sensor_id;sensor_type;location;lat;lon;timestamp;P1;durP1;ratioP1;P2;durP2;ratioP2
15126;SDS011;7664;52.008;4.748;2023-04-06T00:02:05;15.90;;;9.80;;
15126;SDS011;7664;52.008;4.748;2023-04-06T00:04:33;15.05;;;9.30;;
15126;SDS011;7664;52.008;4.748;2023-04-06T00:07:02;14.30;;;9.38;;
15126;SDS011;7664;52.008;4.748;2023-04-06T00:09:32;14.75;;;8.82;;
15126;SDS011;7664;52.008;4.748;2023-04-06T00:12:01;15.18;;;9.23;;
15126;SDS011;7664;52.008;4.748;2023-04-06T00:14:31;12.88;;;8.00;;
15126;SDS011;7664;52.008;4.748;2023-04-06T00:17:00;14.90;;;9.43;;
15126;SDS011;7664;52.008;4.748;2023-04-06T00:19:32;11.93;;;8.25;;
15126;SDS011;7664;52.008;4.748;2023-04-06T00:22:00;12.32;;;8.20;;
15126;SDS011;7664;52.008;4.748;2023-04-06T00:24:31;13.35;;;8.07;;
15126;SDS011;7664;52.008;4.748;2023-04-06T00:27:02;13.25;;;8.07;;
15126;SDS011;7664;52.008;4.748;2023-04-06T00:29:33;12.38;;;8.30;;
15126;SDS011;7664;52.008;4.748;2023-04-06T00:32:01;12.05;;;7.70;;
15126;SDS011;7664;52.008;4.748;2023-04-06T00:34:35;13.63;;;7.80;;
15126;SDS011;7664;52.008;4.748;2023-04-06T00:37:06;12.98;;;8.65;;
15126;SDS011;7664;52.008;4.748;2023-04-06T00:39:34;15.45;;;8.27;;
15126;SDS011;7664;52.008;4.748;2023-04-06T00:42:06;14.60;;;8.45;;
15126;SDS011;7664;52.008;4.748;2023-04-06T00:44:40;14.02;;;8.73;;
15126;SDS011;7664;52.008;4.748;2023-04-06T00:47:09;12.35;;;7.40;;
15126;SDS011;7664;52.008;4.748;2023-04-06T00:49:41;11.02;;;7.22;;
15126;SDS011;7664;52.008;4.748;2023-04-06T00:52:12;13.30;;;8.15;;
15126;SDS011;7664;52.008;4.748;2023-04-06T00:54:45;12.07;;;7.90;;
15126;SDS011;7664;52.008;4.748;2023-04-06T00:57:19;12.52;;;7.60;;
15126;SDS011;7664;52.008;4.748;2023-04-06T00:59:52;15.32;;;8.30;;
15126;SDS011;7664;52.008;4.748;2023-04-06T01:02:21;12.00;;;7.38;;
15126;SDS011;7664;52.008;4.748;2023-04-06T01:04:53;14.13;;;7.90;;
15126;SDS011;7664;52.008;4.748;2023-04-06T01:07:36;16.58;;;9.05;;
15126;SDS011;7664;52.008;4.748;2023-04-06T01:10:09;15.93;;;8.15;;
15126;SDS011;7664;52.008;4.748;2023-04-06T01:12:40;15.95;;;8.30;;
15126;SDS011;7664;52.008;4.748;2023-04-06T01:15:20;14.60;;;7.40;;
15126;SDS011;7664;52.008;4.748;2023-04-06T01:17:50;13.38;;;8.07;;
15126;SDS011;7664;52.008;4.748;2023-04-06T01:20:20;14.45;;;8.18;;
15126;SDS011;7664;52.008;4.748;2023-04-06T01:23:01;15.15;;;7.93;;
15126;SDS011;7664;52.008;4.748;2023-04-06T01:25:30;12.65;;;7.47;;
15126;SDS011;7664;52.008;4.748;2023-04-06T01:28:06;12.18;;;7.97;;
15126;SDS011;7664;52.008;4.748;2023-04-06T01:30:52;13.18;;;6.95;;
15126;SDS011;7664;52.008;4.748;2023-04-06T01:33:41;15.82;;;7.60;;
15126;SDS011;7664;52.008;4.748;2023-04-06T01:36:13;14.55;;;8.02;;
15126;SDS011;7664;52.008;4.748;2023-04-06T01:38:46;14.68;;;8.60;;
15126;SDS011;7664;52.008;4.748;2023-04-06T01:41:21;14.55;;;7.50;;
15126;SDS011;7664;52.008;4.748;2023-04-06T01:43:51;12.60;;;8.65;;
15126;SDS011;7664;52.008;4.748;2023-04-06T01:46:26;14.10;;;8.05;;
15126;SDS011;7664;52.008;4.748;2023-04-06T01:48:58;13.00;;;7.60;;
15126;SDS011;7664;52.008;4.748;2023-04-06T01:51:32;14.85;;;8.32;;
15126;SDS011;7664;52.008;4.748;2023-04-06T01:54:04;12.20;;;7.10;;
15126;SDS011;7664;52.008;4.748;2023-04-06T01:56:47;14.68;;;8.15;;
15126;SDS011;7664;52.008;4.748;2023-04-06T01:59:29;10.55;;;7.03;;
15126;SDS011;7664;52.008;4.748;2023-04-06T02:02:00;13.43;;;8.07;;
15126;SDS011;7664;52.008;4.748;2023-04-06T02:04:30;12.30;;;8.27;;
15126;SDS011;7664;52.008;4.748;2023-04-06T02:07:07;14.27;;;8.80;;
15126;SDS011;7664;52.008;4.748;2023-04-06T02:09:40;13.23;;;7.95;;
15126;SDS011;7664;52.008;4.748;2023-04-06T02:12:14;16.25;;;8.57;;
15126;SDS011;7664;52.008;4.748;2023-04-06T02:14:42;14.70;;;7.93;;
15126;SDS011;7664;52.008;4.748;2023-04-06T02:17:11;15.32;;;9.07;;
15126;SDS011;7664;52.008;4.748;2023-04-06T02:19:39;12.75;;;8.15;;
15126;SDS011;7664;52.008;4.748;2023-04-06T02:22:14;13.77;;;8.48;;
15126;SDS011;7664;52.008;4.748;2023-04-06T02:24:45;13.30;;;7.75;;
15126;SDS011;7664;52.008;4.748;2023-04-06T02:27:16;13.05;;;8.05;;
15126;SDS011;7664;52.008;4.748;2023-04-06T02:29:46;11.38;;;7.78;;
15126;SDS011;7664;52.008;4.748;2023-04-06T02:32:19;12.77;;;8.50;;
15126;SDS011;7664;52.008;4.748;2023-04-06T02:34:51;14.93;;;8.27;;
15126;SDS011;7664;52.008;4.748;2023-04-06T02:37:20;16.95;;;9.30;;
15126;SDS011;7664;52.008;4.748;2023-04-06T02:39:52;16.17;;;8.57;;
15126;SDS011;7664;52.008;4.748;2023-04-06T02:42:26;14.15;;;8.77;;
15126;SDS011;7664;52.008;4.748;2023-04-06T02:44:54;16.17;;;9.48;;
15126;SDS011;7664;52.008;4.748;2023-04-06T02:47:27;17.42;;;9.15;;
15126;SDS011;7664;52.008;4.748;2023-04-06T02:49:55;18.58;;;8.40;;
15126;SDS011;7664;52.008;4.748;2023-04-06T02:52:24;15.85;;;8.52;;
15126;SDS011;7664;52.008;4.748;2023-04-06T02:54:56;14.20;;;8.00;;
15126;SDS011;7664;52.008;4.748;2023-04-06T02:57:28;13.10;;;7.45;;
15126;SDS011;7664;52.008;4.748;2023-04-06T02:59:57;14.02;;;8.77;;
15126;SDS011;7664;52.008;4.748;2023-04-06T03:02:33;14.80;;;8.65;;
15126;SDS011;7664;52.008;4.748;2023-04-06T03:05:12;14.00;;;9.30;;
15126;SDS011;7664;52.008;4.748;2023-04-06T03:07:42;15.43;;;9.80;;
15126;SDS011;7664;52.008;4.748;2023-04-06T03:10:29;12.80;;;9.30;;
15126;SDS011;7664;52.008;4.748;2023-04-06T03:12:57;14.65;;;8.80;;
15126;SDS011;7664;52.008;4.748;2023-04-06T03:15:41;15.63;;;9.38;;
15126;SDS011;7664;52.008;4.748;2023-04-06T03:18:15;19.42;;;9.77;;
15126;SDS011;7664;52.008;4.748;2023-04-06T03:20:46;18.10;;;9.75;;
15126;SDS011;7664;52.008;4.748;2023-04-06T03:23:16;16.15;;;8.95;;
15126;SDS011;7664;52.008;4.748;2023-04-06T03:25:52;15.80;;;10.00;;
15126;SDS011;7664;52.008;4.748;2023-04-06T03:28:23;15.98;;;9.80;;
15126;SDS011;7664;52.008;4.748;2023-04-06T03:31:01;17.25;;;9.75;;
15126;SDS011;7664;52.008;4.748;2023-04-06T03:33:38;19.23;;;9.38;;
15126;SDS011;7664;52.008;4.748;2023-04-06T03:36:20;14.25;;;9.00;;
15126;SDS011;7664;52.008;4.748;2023-04-06T03:38:49;14.93;;;9.32;;
15126;SDS011;7664;52.008;4.748;2023-04-06T03:41:21;15.68;;;9.27;;
15126;SDS011;7664;52.008;4.748;2023-04-06T03:43:59;16.48;;;10.30;;
15126;SDS011;7664;52.008;4.748;2023-04-06T03:46:27;15.82;;;10.45;;
15126;SDS011;7664;52.008;4.748;2023-04-06T03:48:59;17.27;;;9.85;;
15126;SDS011;7664;52.008;4.748;2023-04-06T03:51:27;13.48;;;9.50;;
15126;SDS011;7664;52.008;4.748;2023-04-06T03:53:58;16.52;;;10.30;;
15126;SDS011;7664;52.008;4.748;2023-04-06T03:56:28;17.85;;;9.82;;
15126;SDS011;7664;52.008;4.748;2023-04-06T03:58:58;17.58;;;10.77;;
15126;SDS011;7664;52.008;4.748;2023-04-06T04:01:28;17.85;;;9.48;;
15126;SDS011;7664;52.008;4.748;2023-04-06T04:03:56;16.88;;;10.05;;
15126;SDS011;7664;52.008;4.748;2023-04-06T04:06:25;14.05;;;9.45;;
15126;SDS011;7664;52.008;4.748;2023-04-06T04:08:53;14.68;;;9.35;;
15126;SDS011;7664;52.008;4.748;2023-04-06T04:11:22;15.73;;;10.13;;
15126;SDS011;7664;52.008;4.748;2023-04-06T04:13:57;20.02;;;10.50;;
15126;SDS011;7664;52.008;4.748;2023-04-06T04:16:26;17.60;;;10.07;;
15126;SDS011;7664;52.008;4.748;2023-04-06T04:18:55;20.73;;;11.27;;
15126;SDS011;7664;52.008;4.748;2023-04-06T04:21:25;17.10;;;10.02;;
15126;SDS011;7664;52.008;4.748;2023-04-06T04:23:53;16.42;;;10.02;;
15126;SDS011;7664;52.008;4.748;2023-04-06T04:26:22;19.98;;;10.05;;
15126;SDS011;7664;52.008;4.748;2023-04-06T04:28:50;17.08;;;10.02;;
15126;SDS011;7664;52.008;4.748;2023-04-06T04:31:23;18.98;;;11.23;;
15126;SDS011;7664;52.008;4.748;2023-04-06T04:33:56;17.48;;;10.50;;
15126;SDS011;7664;52.008;4.748;2023-04-06T04:36:32;17.75;;;10.02;;
15126;SDS011;7664;52.008;4.748;2023-04-06T04:39:04;19.88;;;10.80;;
15126;SDS011;7664;52.008;4.748;2023-04-06T04:41:37;21.05;;;11.73;;
15126;SDS011;7664;52.008;4.748;2023-04-06T04:44:08;16.10;;;9.82;;
15126;SDS011;7664;52.008;4.748;2023-04-06T04:46:38;20.35;;;10.98;;
15126;SDS011;7664;52.008;4.748;2023-04-06T04:49:09;21.90;;;11.18;;
15126;SDS011;7664;52.008;4.748;2023-04-06T04:51:39;16.70;;;10.77;;
15126;SDS011;7664;52.008;4.748;2023-04-06T04:54:12;19.85;;;10.20;;
15126;SDS011;7664;52.008;4.748;2023-04-06T04:56:41;17.38;;;10.52;;
15126;SDS011;7664;52.008;4.748;2023-04-06T04:59:25;17.77;;;11.32;;
15126;SDS011;7664;52.008;4.748;2023-04-06T05:02:02;18.98;;;11.10;;
15126;SDS011;7664;52.008;4.748;2023-04-06T05:04:42;18.23;;;10.70;;
15126;SDS011;7664;52.008;4.748;2023-04-06T05:07:17;19.40;;;10.05;;
15126;SDS011;7664;52.008;4.748;2023-04-06T05:09:48;20.52;;;10.73;;
15126;SDS011;7664;52.008;4.748;2023-04-06T05:12:17;18.52;;;10.13;;
15126;SDS011;7664;52.008;4.748;2023-04-06T05:15:06;20.38;;;11.77;;
15126;SDS011;7664;52.008;4.748;2023-04-06T05:17:35;18.33;;;10.57;;
15126;SDS011;7664;52.008;4.748;2023-04-06T05:20:09;18.48;;;11.13;;
15126;SDS011;7664;52.008;4.748;2023-04-06T05:22:44;19.05;;;10.85;;
15126;SDS011;7664;52.008;4.748;2023-04-06T05:25:17;17.33;;;10.77;;
15126;SDS011;7664;52.008;4.748;2023-04-06T05:27:49;17.50;;;10.57;;
15126;SDS011;7664;52.008;4.748;2023-04-06T05:30:28;16.60;;;10.73;;
15126;SDS011;7664;52.008;4.748;2023-04-06T05:32:59;17.10;;;10.25;;
15126;SDS011;7664;52.008;4.748;2023-04-06T05:35:35;20.52;;;10.95;;
15126;SDS011;7664;52.008;4.748;2023-04-06T05:38:09;25.30;;;11.80;;
15126;SDS011;7664;52.008;4.748;2023-04-06T05:40:37;16.60;;;10.82;;
15126;SDS011;7664;52.008;4.748;2023-04-06T05:43:11;17.52;;;10.15;;
15126;SDS011;7664;52.008;4.748;2023-04-06T05:45:43;19.00;;;10.95;;
15126;SDS011;7664;52.008;4.748;2023-04-06T05:48:16;19.45;;;11.43;;
15126;SDS011;7664;52.008;4.748;2023-04-06T05:50:47;21.25;;;11.95;;
15126;SDS011;7664;52.008;4.748;2023-04-06T05:53:20;21.08;;;11.25;;
15126;SDS011;7664;52.008;4.748;2023-04-06T05:56:00;18.25;;;10.00;;
15126;SDS011;7664;52.008;4.748;2023-04-06T05:58:29;24.77;;;11.50;;
15126;SDS011;7664;52.008;4.748;2023-04-06T06:01:02;19.63;;;11.02;;
15126;SDS011;7664;52.008;4.748;2023-04-06T06:03:39;20.75;;;10.85;;
15126;SDS011;7664;52.008;4.748;2023-04-06T06:06:13;19.67;;;11.18;;
15126;SDS011;7664;52.008;4.748;2023-04-06T06:09:07;19.80;;;10.82;;
15126;SDS011;7664;52.008;4.748;2023-04-06T06:11:42;20.00;;;12.30;;
15126;SDS011;7664;52.008;4.748;2023-04-06T06:14:17;20.75;;;11.18;;
15126;SDS011;7664;52.008;4.748;2023-04-06T06:16:48;18.10;;;10.80;;
15126;SDS011;7664;52.008;4.748;2023-04-06T06:19:18;23.15;;;12.43;;
15126;SDS011;7664;52.008;4.748;2023-04-06T06:21:48;17.30;;;10.52;;
15126;SDS011;7664;52.008;4.748;2023-04-06T06:24:19;26.65;;;11.23;;
15126;SDS011;7664;52.008;4.748;2023-04-06T06:26:50;20.23;;;11.18;;
15126;SDS011;7664;52.008;4.748;2023-04-06T06:29:25;18.42;;;12.18;;
15126;SDS011;7664;52.008;4.748;2023-04-06T06:31:58;20.75;;;10.27;;
15126;SDS011;7664;52.008;4.748;2023-04-06T06:34:29;23.17;;;12.68;;
15126;SDS011;7664;52.008;4.748;2023-04-06T06:36:59;20.20;;;12.02;;
15126;SDS011;7664;52.008;4.748;2023-04-06T06:39:28;19.42;;;11.32;;
15126;SDS011;7664;52.008;4.748;2023-04-06T06:41:57;20.65;;;12.20;;
15126;SDS011;7664;52.008;4.748;2023-04-06T06:44:44;25.88;;;11.27;;
15126;SDS011;7664;52.008;4.748;2023-04-06T06:47:13;22.33;;;13.10;;
15126;SDS011;7664;52.008;4.748;2023-04-06T06:49:44;18.50;;;11.50;;
15126;SDS011;7664;52.008;4.748;2023-04-06T06:52:12;19.85;;;10.02;;
15126;SDS011;7664;52.008;4.748;2023-04-06T06:54:42;20.23;;;11.75;;
15126;SDS011;7664;52.008;4.748;2023-04-06T06:57:11;18.85;;;11.15;;
15126;SDS011;7664;52.008;4.748;2023-04-06T06:59:39;16.33;;;10.63;;
15126;SDS011;7664;52.008;4.748;2023-04-06T07:02:08;18.70;;;11.20;;
15126;SDS011;7664;52.008;4.748;2023-04-06T07:04:36;18.38;;;12.05;;
15126;SDS011;7664;52.008;4.748;2023-04-06T07:07:11;18.40;;;11.52;;
15126;SDS011;7664;52.008;4.748;2023-04-06T07:09:39;19.17;;;11.85;;
15126;SDS011;7664;52.008;4.748;2023-04-06T07:12:12;19.40;;;11.63;;
15126;SDS011;7664;52.008;4.748;2023-04-06T07:14:42;20.63;;;12.25;;
15126;SDS011;7664;52.008;4.748;2023-04-06T07:17:11;18.63;;;11.63;;
15126;SDS011;7664;52.008;4.748;2023-04-06T07:19:40;21.15;;;12.50;;
15126;SDS011;7664;52.008;4.748;2023-04-06T07:22:08;20.00;;;12.50;;
15126;SDS011;7664;52.008;4.748;2023-04-06T07:24:41;19.42;;;11.70;;
15126;SDS011;7664;52.008;4.748;2023-04-06T07:27:09;19.45;;;11.90;;
15126;SDS011;7664;52.008;4.748;2023-04-06T07:29:40;17.90;;;11.80;;
15126;SDS011;7664;52.008;4.748;2023-04-06T07:32:08;19.70;;;12.30;;
15126;SDS011;7664;52.008;4.748;2023-04-06T07:34:39;19.02;;;11.82;;
15126;SDS011;7664;52.008;4.748;2023-04-06T07:37:08;23.02;;;12.23;;
15126;SDS011;7664;52.008;4.748;2023-04-06T07:39:36;22.52;;;12.90;;
15126;SDS011;7664;52.008;4.748;2023-04-06T07:42:06;19.08;;;12.65;;
15126;SDS011;7664;52.008;4.748;2023-04-06T07:44:34;21.00;;;12.80;;
15126;SDS011;7664;52.008;4.748;2023-04-06T07:47:02;19.83;;;12.55;;
15126;SDS011;7664;52.008;4.748;2023-04-06T07:49:31;19.17;;;11.75;;
15126;SDS011;7664;52.008;4.748;2023-04-06T07:52:01;20.27;;;11.50;;
15126;SDS011;7664;52.008;4.748;2023-04-06T07:54:29;20.00;;;12.73;;
15126;SDS011;7664;52.008;4.748;2023-04-06T07:56:58;25.67;;;14.73;;
15126;SDS011;7664;52.008;4.748;2023-04-06T07:59:29;22.27;;;13.95;;
15126;SDS011;7664;52.008;4.748;2023-04-06T08:01:58;19.45;;;12.30;;
15126;SDS011;7664;52.008;4.748;2023-04-06T08:04:27;21.42;;;13.43;;
15126;SDS011;7664;52.008;4.748;2023-04-06T08:06:57;23.13;;;13.25;;
15126;SDS011;7664;52.008;4.748;2023-04-06T08:09:26;24.05;;;14.63;;
15126;SDS011;7664;52.008;4.748;2023-04-06T08:11:56;21.52;;;14.48;;
15126;SDS011;7664;52.008;4.748;2023-04-06T08:14:25;24.08;;;13.65;;
15126;SDS011;7664;52.008;4.748;2023-04-06T08:16:57;24.05;;;14.23;;
15126;SDS011;7664;52.008;4.748;2023-04-06T08:19:26;26.20;;;15.55;;
15126;SDS011;7664;52.008;4.748;2023-04-06T08:21:56;19.27;;;13.52;;
15126;SDS011;7664;52.008;4.748;2023-04-06T08:24:25;20.95;;;12.63;;
15126;SDS011;7664;52.008;4.748;2023-04-06T08:26:53;24.50;;;13.45;;
15126;SDS011;7664;52.008;4.748;2023-04-06T08:29:22;25.90;;;14.50;;
15126;SDS011;7664;52.008;4.748;2023-04-06T08:31:50;20.23;;;13.10;;
15126;SDS011;7664;52.008;4.748;2023-04-06T08:34:20;23.13;;;14.30;;
15126;SDS011;7664;52.008;4.748;2023-04-06T08:36:49;23.77;;;14.68;;
15126;SDS011;7664;52.008;4.748;2023-04-06T08:39:24;24.35;;;14.95;;
15126;SDS011;7664;52.008;4.748;2023-04-06T08:42:00;22.90;;;14.75;;
15126;SDS011;7664;52.008;4.748;2023-04-06T08:44:29;21.60;;;15.10;;
15126;SDS011;7664;52.008;4.748;2023-04-06T08:46:59;23.17;;;14.23;;
15126;SDS011;7664;52.008;4.748;2023-04-06T08:49:31;23.17;;;14.18;;
15126;SDS011;7664;52.008;4.748;2023-04-06T08:52:00;21.52;;;13.25;;
15126;SDS011;7664;52.008;4.748;2023-04-06T08:54:29;26.23;;;14.77;;
15126;SDS011;7664;52.008;4.748;2023-04-06T08:56:57;27.80;;;15.07;;
15126;SDS011;7664;52.008;4.748;2023-04-06T08:59:26;21.88;;;14.35;;
15126;SDS011;7664;52.008;4.748;2023-04-06T09:01:55;22.63;;;14.52;;
15126;SDS011;7664;52.008;4.748;2023-04-06T09:04:24;25.42;;;14.38;;
15126;SDS011;7664;52.008;4.748;2023-04-06T09:06:56;24.23;;;13.73;;
15126;SDS011;7664;52.008;4.748;2023-04-06T09:09:27;27.73;;;14.60;;
15126;SDS011;7664;52.008;4.748;2023-04-06T09:11:58;27.08;;;14.60;;
15126;SDS011;7664;52.008;4.748;2023-04-06T09:14:35;25.45;;;15.60;;
15126;SDS011;7664;52.008;4.748;2023-04-06T09:17:06;25.95;;;14.50;;
15126;SDS011;7664;52.008;4.748;2023-04-06T09:19:44;25.13;;;12.90;;
15126;SDS011;7664;52.008;4.748;2023-04-06T09:22:14;20.52;;;10.85;;
15126;SDS011;7664;52.008;4.748;2023-04-06T09:24:43;18.38;;;9.60;;
15126;SDS011;7664;52.008;4.748;2023-04-06T09:27:16;14.55;;;8.73;;
15126;SDS011;7664;52.008;4.748;2023-04-06T09:29:45;13.75;;;8.38;;
15126;SDS011;7664;52.008;4.748;2023-04-06T09:32:13;16.13;;;8.02;;
15126;SDS011;7664;52.008;4.748;2023-04-06T09:34:43;15.05;;;8.07;;
15126;SDS011;7664;52.008;4.748;2023-04-06T09:37:17;9.35;;;6.32;;
15126;SDS011;7664;52.008;4.748;2023-04-06T09:39:46;11.23;;;6.20;;
15126;SDS011;7664;52.008;4.748;2023-04-06T09:42:23;10.60;;;6.55;;
15126;SDS011;7664;52.008;4.748;2023-04-06T09:44:52;11.07;;;5.93;;
15126;SDS011;7664;52.008;4.748;2023-04-06T09:47:20;10.60;;;5.43;;
15126;SDS011;7664;52.008;4.748;2023-04-06T09:49:55;10.77;;;6.53;;
15126;SDS011;7664;52.008;4.748;2023-04-06T09:52:25;11.48;;;6.00;;
15126;SDS011;7664;52.008;4.748;2023-04-06T09:55:01;9.50;;;6.10;;
15126;SDS011;7664;52.008;4.748;2023-04-06T09:57:32;8.02;;;4.97;;
15126;SDS011;7664;52.008;4.748;2023-04-06T10:00:03;7.72;;;5.32;;
15126;SDS011;7664;52.008;4.748;2023-04-06T10:02:38;10.00;;;5.03;;
15126;SDS011;7664;52.008;4.748;2023-04-06T10:05:08;7.85;;;4.75;;
15126;SDS011;7664;52.008;4.748;2023-04-06T10:07:39;8.82;;;3.97;;
15126;SDS011;7664;52.008;4.748;2023-04-06T10:10:25;5.95;;;4.10;;
15126;SDS011;7664;52.008;4.748;2023-04-06T10:12:54;7.32;;;4.40;;
15126;SDS011;7664;52.008;4.748;2023-04-06T10:15:23;5.93;;;3.95;;
15126;SDS011;7664;52.008;4.748;2023-04-06T10:17:51;7.70;;;4.40;;
15126;SDS011;7664;52.008;4.748;2023-04-06T10:20:21;8.25;;;4.65;;
15126;SDS011;7664;52.008;4.748;2023-04-06T10:22:53;6.72;;;4.68;;
15126;SDS011;7664;52.008;4.748;2023-04-06T10:25:27;5.68;;;3.95;;
15126;SDS011;7664;52.008;4.748;2023-04-06T10:28:01;9.10;;;4.65;;
15126;SDS011;7664;52.008;4.748;2023-04-06T10:30:32;5.82;;;4.30;;
15126;SDS011;7664;52.008;4.748;2023-04-06T10:33:12;6.28;;;4.28;;
15126;SDS011;7664;52.008;4.748;2023-04-06T10:35:41;9.02;;;3.72;;
15126;SDS011;7664;52.008;4.748;2023-04-06T10:38:13;6.68;;;4.05;;
15126;SDS011;7664;52.008;4.748;2023-04-06T10:40:48;6.15;;;4.07;;
15126;SDS011;7664;52.008;4.748;2023-04-06T10:43:21;5.55;;;4.13;;
15126;SDS011;7664;52.008;4.748;2023-04-06T10:45:54;8.32;;;3.83;;
15126;SDS011;7664;52.008;4.748;2023-04-06T10:48:25;4.90;;;3.88;;
15126;SDS011;7664;52.008;4.748;2023-04-06T10:51:07;7.07;;;4.15;;
15126;SDS011;7664;52.008;4.748;2023-04-06T10:53:37;5.70;;;4.10;;
15126;SDS011;7664;52.008;4.748;2023-04-06T10:56:08;7.30;;;4.38;;
15126;SDS011;7664;52.008;4.748;2023-04-06T10:58:45;6.38;;;4.38;;
15126;SDS011;7664;52.008;4.748;2023-04-06T11:01:14;6.40;;;4.47;;
15126;SDS011;7664;52.008;4.748;2023-04-06T11:03:43;7.00;;;5.00;;
15126;SDS011;7664;52.008;4.748;2023-04-06T11:06:17;7.93;;;4.43;;
15126;SDS011;7664;52.008;4.748;2023-04-06T11:08:47;7.28;;;5.10;;
15126;SDS011;7664;52.008;4.748;2023-04-06T11:11:17;10.20;;;4.82;;
15126;SDS011;7664;52.008;4.748;2023-04-06T11:13:46;8.00;;;5.13;;
15126;SDS011;7664;52.008;4.748;2023-04-06T11:16:15;9.93;;;5.60;;
15126;SDS011;7664;52.008;4.748;2023-04-06T11:18:52;8.88;;;5.35;;
15126;SDS011;7664;52.008;4.748;2023-04-06T11:21:33;8.15;;;5.15;;
15126;SDS011;7664;52.008;4.748;2023-04-06T11:24:10;7.25;;;5.07;;
15126;SDS011;7664;52.008;4.748;2023-04-06T11:26:40;9.57;;;6.03;;
15126;SDS011;7664;52.008;4.748;2023-04-06T11:29:09;7.88;;;5.72;;
15126;SDS011;7664;52.008;4.748;2023-04-06T11:31:41;8.55;;;5.78;;
15126;SDS011;7664;52.008;4.748;2023-04-06T11:34:13;8.48;;;5.95;;
15126;SDS011;7664;52.008;4.748;2023-04-06T11:36:42;7.63;;;5.15;;
15126;SDS011;7664;52.008;4.748;2023-04-06T11:39:13;10.10;;;6.18;;
15126;SDS011;7664;52.008;4.748;2023-04-06T11:41:41;7.22;;;5.03;;
15126;SDS011;7664;52.008;4.748;2023-04-06T11:44:10;6.78;;;5.00;;
15126;SDS011;7664;52.008;4.748;2023-04-06T11:46:39;8.45;;;5.00;;
15126;SDS011;7664;52.008;4.748;2023-04-06T11:49:07;9.25;;;5.75;;
15126;SDS011;7664;52.008;4.748;2023-04-06T11:51:36;7.40;;;5.50;;
15126;SDS011;7664;52.008;4.748;2023-04-06T11:54:04;8.25;;;5.43;;
15126;SDS011;7664;52.008;4.748;2023-04-06T11:56:34;8.90;;;5.68;;
15126;SDS011;7664;52.008;4.748;2023-04-06T11:59:02;7.45;;;4.90;;
15126;SDS011;7664;52.008;4.748;2023-04-06T12:01:31;7.78;;;4.97;;
15126;SDS011;7664;52.008;4.748;2023-04-06T12:04:04;7.18;;;4.82;;
15126;SDS011;7664;52.008;4.748;2023-04-06T12:06:33;8.43;;;4.88;;
15126;SDS011;7664;52.008;4.748;2023-04-06T12:09:01;7.95;;;5.28;;
15126;SDS011;7664;52.008;4.748;2023-04-06T12:11:29;11.65;;;5.88;;
15126;SDS011;7664;52.008;4.748;2023-04-06T12:13:59;8.75;;;5.40;;
15126;SDS011;7664;52.008;4.748;2023-04-06T12:16:31;7.93;;;4.97;;
15126;SDS011;7664;52.008;4.748;2023-04-06T12:18:59;7.70;;;5.03;;
15126;SDS011;7664;52.008;4.748;2023-04-06T12:21:28;6.43;;;4.53;;
15126;SDS011;7664;52.008;4.748;2023-04-06T12:23:57;7.68;;;4.82;;
15126;SDS011;7664;52.008;4.748;2023-04-06T12:26:25;6.47;;;4.82;;
15126;SDS011;7664;52.008;4.748;2023-04-06T12:28:54;10.38;;;7.20;;
15126;SDS011;7664;52.008;4.748;2023-04-06T12:31:26;9.02;;;6.35;;
15126;SDS011;7664;52.008;4.748;2023-04-06T12:33:55;8.02;;;6.05;;
15126;SDS011;7664;52.008;4.748;2023-04-06T12:36:23;8.60;;;6.07;;
15126;SDS011;7664;52.008;4.748;2023-04-06T12:38:53;9.18;;;5.75;;
15126;SDS011;7664;52.008;4.748;2023-04-06T12:41:21;8.77;;;5.85;;
15126;SDS011;7664;52.008;4.748;2023-04-06T12:43:51;8.98;;;5.65;;
15126;SDS011;7664;52.008;4.748;2023-04-06T12:46:27;7.93;;;5.47;;
15126;SDS011;7664;52.008;4.748;2023-04-06T12:48:59;8.65;;;5.38;;
15126;SDS011;7664;52.008;4.748;2023-04-06T12:51:29;8.88;;;5.80;;
15126;SDS011;7664;52.008;4.748;2023-04-06T12:53:58;7.55;;;5.28;;
15126;SDS011;7664;52.008;4.748;2023-04-06T12:56:27;7.32;;;5.10;;
15126;SDS011;7664;52.008;4.748;2023-04-06T12:58:56;10.52;;;6.20;;
15126;SDS011;7664;52.008;4.748;2023-04-06T13:01:26;7.82;;;5.38;;
15126;SDS011;7664;52.008;4.748;2023-04-06T13:03:55;9.57;;;5.47;;
15126;SDS011;7664;52.008;4.748;2023-04-06T13:06:24;8.27;;;5.80;;
15126;SDS011;7664;52.008;4.748;2023-04-06T13:08:54;7.97;;;5.57;;
15126;SDS011;7664;52.008;4.748;2023-04-06T13:11:25;7.20;;;5.55;;
15126;SDS011;7664;52.008;4.748;2023-04-06T13:13:56;7.15;;;5.20;;
15126;SDS011;7664;52.008;4.748;2023-04-06T13:16:28;9.75;;;5.82;;
15126;SDS011;7664;52.008;4.748;2023-04-06T13:18:57;9.02;;;6.05;;
15126;SDS011;7664;52.008;4.748;2023-04-06T13:21:25;10.35;;;5.78;;
15126;SDS011;7664;52.008;4.748;2023-04-06T13:23:54;7.45;;;5.40;;
15126;SDS011;7664;52.008;4.748;2023-04-06T13:26:22;8.93;;;6.15;;
15126;SDS011;7664;52.008;4.748;2023-04-06T13:28:51;8.88;;;5.93;;
15126;SDS011;7664;52.008;4.748;2023-04-06T13:31:27;7.93;;;5.85;;
15126;SDS011;7664;52.008;4.748;2023-04-06T13:33:56;8.25;;;5.95;;
15126;SDS011;7664;52.008;4.748;2023-04-06T13:36:25;7.60;;;5.80;;
15126;SDS011;7664;52.008;4.748;2023-04-06T13:38:56;7.85;;;5.70;;
15126;SDS011;7664;52.008;4.748;2023-04-06T13:41:25;9.00;;;5.72;;
15126;SDS011;7664;52.008;4.748;2023-04-06T13:43:54;7.90;;;6.18;;
15126;SDS011;7664;52.008;4.748;2023-04-06T13:46:24;8.15;;;5.68;;
15126;SDS011;7664;52.008;4.748;2023-04-06T13:48:54;9.43;;;6.13;;
15126;SDS011;7664;52.008;4.748;2023-04-06T13:51:23;9.30;;;6.07;;
15126;SDS011;7664;52.008;4.748;2023-04-06T13:53:53;7.57;;;5.53;;
15126;SDS011;7664;52.008;4.748;2023-04-06T13:56:21;9.88;;;6.07;;
15126;SDS011;7664;52.008;4.748;2023-04-06T13:58:49;6.28;;;4.85;;
15126;SDS011;7664;52.008;4.748;2023-04-06T14:01:23;7.68;;;5.35;;
15126;SDS011;7664;52.008;4.748;2023-04-06T14:03:54;6.45;;;4.35;;
15126;SDS011;7664;52.008;4.748;2023-04-06T14:06:23;8.30;;;5.15;;
15126;SDS011;7664;52.008;4.748;2023-04-06T14:08:57;7.70;;;5.18;;
15126;SDS011;7664;52.008;4.748;2023-04-06T14:11:27;8.63;;;5.47;;
15126;SDS011;7664;52.008;4.748;2023-04-06T14:13:56;8.10;;;5.60;;
15126;SDS011;7664;52.008;4.748;2023-04-06T14:16:24;8.25;;;5.03;;
15126;SDS011;7664;52.008;4.748;2023-04-06T14:18:53;7.53;;;5.20;;
15126;SDS011;7664;52.008;4.748;2023-04-06T14:21:25;8.32;;;5.60;;
15126;SDS011;7664;52.008;4.748;2023-04-06T14:23:54;6.13;;;4.85;;
15126;SDS011;7664;52.008;4.748;2023-04-06T14:26:25;6.70;;;5.30;;
15126;SDS011;7664;52.008;4.748;2023-04-06T14:28:54;8.00;;;5.68;;
15126;SDS011;7664;52.008;4.748;2023-04-06T14:31:22;6.95;;;5.25;;
15126;SDS011;7664;52.008;4.748;2023-04-06T14:33:50;6.72;;;4.63;;
15126;SDS011;7664;52.008;4.748;2023-04-06T14:36:19;7.93;;;5.50;;
15126;SDS011;7664;52.008;4.748;2023-04-06T14:38:49;7.18;;;5.15;;
15126;SDS011;7664;52.008;4.748;2023-04-06T14:41:20;8.65;;;5.65;;
15126;SDS011;7664;52.008;4.748;2023-04-06T14:43:54;7.28;;;5.22;;
15126;SDS011;7664;52.008;4.748;2023-04-06T14:46:22;6.28;;;4.90;;
15126;SDS011;7664;52.008;4.748;2023-04-06T14:48:50;8.07;;;5.43;;
15126;SDS011;7664;52.008;4.748;2023-04-06T14:51:19;5.57;;;4.50;;
15126;SDS011;7664;52.008;4.748;2023-04-06T14:53:48;7.65;;;5.38;;
15126;SDS011;7664;52.008;4.748;2023-04-06T14:56:20;7.10;;;5.05;;
15126;SDS011;7664;52.008;4.748;2023-04-06T14:58:49;6.10;;;4.95;;
15126;SDS011;7664;52.008;4.748;2023-04-06T15:01:21;8.25;;;4.50;;
15126;SDS011;7664;52.008;4.748;2023-04-06T15:03:49;6.00;;;4.38;;
15126;SDS011;7664;52.008;4.748;2023-04-06T15:06:18;7.07;;;4.50;;
15126;SDS011;7664;52.008;4.748;2023-04-06T15:08:50;6.28;;;4.47;;
15126;SDS011;7664;52.008;4.748;2023-04-06T15:11:18;6.65;;;4.78;;
15126;SDS011;7664;52.008;4.748;2023-04-06T15:13:46;8.75;;;5.10;;